createdAt,value
2018-07-28T00:00:58.907Z,0.00
2018-07-28T00:01:58.916Z,0.00
2018-07-28T00:02:58.856Z,0.00
2018-07-28T00:03:58.852Z,0.00
2018-07-28T00:04:58.835Z,0.00
2018-07-28T00:05:58.853Z,0.00
2018-07-28T00:06:58.853Z,0.00
2018-07-28T00:07:58.840Z,0.00
2018-07-28T00:08:58.792Z,0.00
2018-07-28T00:09:58.824Z,0.00
2018-07-28T00:10:58.784Z,0.00
2018-07-28T00:11:58.799Z,0.00
2018-07-28T00:12:58.759Z,0.00
2018-07-28T00:13:58.759Z,0.00
2018-07-28T00:14:58.728Z,0.00
2018-07-28T00:15:58.721Z,0.00
2018-07-28T00:16:58.758Z,0.00
2018-07-28T00:17:58.710Z,0.00
2018-07-28T00:18:58.685Z,0.00
2018-07-28T00:19:58.677Z,0.00
2018-07-28T00:20:58.665Z,0.00
2018-07-28T00:21:58.678Z,0.00
2018-07-28T00:22:58.642Z,0.00
2018-07-28T00:23:58.683Z,0.00
2018-07-28T00:24:58.631Z,0.00
2018-07-28T00:25:58.611Z,0.00
2018-07-28T00:26:58.628Z,0.00
2018-07-28T00:27:58.590Z,0.00
2018-07-28T00:28:58.579Z,0.00
2018-07-28T00:29:58.590Z,0.00
2018-07-28T00:30:58.557Z,0.00
2018-07-28T00:31:58.570Z,0.00
2018-07-28T00:32:58.539Z,0.00
2018-07-28T00:33:58.548Z,0.00
2018-07-28T00:34:58.516Z,0.00
2018-07-28T00:35:58.508Z,0.00
2018-07-28T00:36:58.602Z,0.00
2018-07-28T00:37:58.485Z,0.00
2018-07-28T00:38:58.476Z,0.00
2018-07-28T00:39:58.512Z,0.00
2018-07-28T00:40:58.478Z,0.00
2018-07-28T00:41:58.574Z,0.00
2018-07-28T00:42:58.431Z,0.00
2018-07-28T00:43:58.480Z,0.00
2018-07-28T00:44:58.410Z,0.00
2018-07-28T00:45:58.397Z,0.00
2018-07-28T00:46:58.449Z,0.00
2018-07-28T00:47:58.394Z,0.00
2018-07-28T00:48:58.366Z,0.00
2018-07-28T00:49:58.370Z,0.00
2018-07-28T00:50:58.345Z,0.00
2018-07-28T00:51:58.361Z,0.00
2018-07-28T00:52:58.351Z,0.00
2018-07-28T00:53:58.313Z,0.00
2018-07-28T00:54:58.312Z,0.00
2018-07-28T00:55:58.298Z,0.00
2018-07-28T00:56:58.358Z,0.00
2018-07-28T00:57:58.271Z,0.00
2018-07-28T00:58:58.308Z,0.00
2018-07-28T00:59:58.251Z,0.00
2018-07-28T01:00:58.237Z,0.00
2018-07-28T01:01:58.257Z,0.00
2018-07-28T01:02:58.217Z,0.00
2018-07-28T01:03:58.249Z,0.00
2018-07-28T01:04:58.195Z,0.00
2018-07-28T01:05:58.193Z,0.00
2018-07-28T01:06:58.225Z,0.00
2018-07-28T01:07:58.169Z,0.00
2018-07-28T01:08:58.162Z,0.00
2018-07-28T01:09:58.167Z,0.00
2018-07-28T01:10:58.133Z,0.00
2018-07-28T01:11:58.146Z,0.00
2018-07-28T01:12:58.231Z,0.00
2018-07-28T01:13:58.103Z,0.00
2018-07-28T01:14:58.101Z,0.00
2018-07-28T01:15:58.086Z,0.00
2018-07-28T01:16:58.099Z,0.00
2018-07-28T01:17:58.093Z,0.00
2018-07-28T01:18:58.074Z,0.00
2018-07-28T01:19:58.045Z,0.00
2018-07-28T01:20:58.069Z,0.00
2018-07-28T01:21:58.060Z,0.00
2018-07-28T01:22:58.004Z,0.00
2018-07-28T01:23:58.001Z,0.00
2018-07-28T01:24:58.001Z,0.00
2018-07-28T01:25:57.975Z,0.00
2018-07-28T01:26:57.986Z,0.00
2018-07-28T01:27:57.951Z,0.00
2018-07-28T01:28:57.940Z,0.00
2018-07-28T01:29:57.997Z,0.00
2018-07-28T01:30:57.920Z,0.00
2018-07-28T01:31:57.909Z,0.00
2018-07-28T01:32:57.939Z,0.00
2018-07-28T01:33:57.889Z,0.00
2018-07-28T01:34:57.877Z,0.00
2018-07-28T01:35:57.872Z,0.00
2018-07-28T01:36:57.859Z,0.00
2018-07-28T01:37:57.870Z,0.00
2018-07-28T01:38:57.836Z,0.00
2018-07-28T01:39:57.828Z,0.00
2018-07-28T01:40:57.814Z,0.00
2018-07-28T01:41:57.824Z,0.00
2018-07-28T01:42:57.835Z,0.00
2018-07-28T01:43:57.785Z,0.00
2018-07-28T01:44:57.780Z,0.00
2018-07-28T01:45:57.761Z,0.00
2018-07-28T01:46:57.779Z,0.00
2018-07-28T01:47:57.776Z,0.00
2018-07-28T01:48:57.732Z,0.00
2018-07-28T01:49:57.723Z,0.00
2018-07-28T01:50:57.709Z,0.00
2018-07-28T01:51:57.744Z,0.00
2018-07-28T01:52:57.705Z,0.00
2018-07-28T01:53:57.694Z,0.00
2018-07-28T01:54:57.666Z,0.00
2018-07-28T01:55:57.654Z,0.00
2018-07-28T01:56:57.669Z,0.00
2018-07-28T01:57:57.636Z,0.00
2018-07-28T01:58:57.623Z,0.00
2018-07-28T01:59:57.637Z,0.00
2018-07-28T02:00:57.630Z,0.00
2018-07-28T02:01:57.619Z,0.00
2018-07-28T02:02:57.580Z,0.00
2018-07-28T02:03:57.577Z,0.00
2018-07-28T02:04:57.619Z,0.00
2018-07-28T02:05:57.568Z,0.00
2018-07-28T02:06:57.563Z,0.00
2018-07-28T02:07:57.527Z,0.00
2018-07-28T02:08:57.539Z,0.00
2018-07-28T02:09:57.507Z,0.00
2018-07-28T02:10:57.497Z,0.00
2018-07-28T02:11:57.509Z,0.00
2018-07-28T02:12:57.495Z,0.00
2018-07-28T02:13:57.467Z,0.00
2018-07-28T02:14:57.485Z,0.00
2018-07-28T02:15:57.463Z,0.00
2018-07-28T02:16:57.460Z,0.00
2018-07-28T02:17:57.424Z,0.00
2018-07-28T02:18:57.411Z,0.00
2018-07-28T02:19:57.399Z,0.00
2018-07-28T02:20:57.399Z,0.00
2018-07-28T02:21:57.406Z,0.00
2018-07-28T02:22:57.416Z,0.00
2018-07-28T02:23:57.394Z,0.00
2018-07-28T02:24:57.357Z,0.00
2018-07-28T02:25:57.336Z,0.00
2018-07-28T02:26:57.379Z,0.00
2018-07-28T02:27:57.322Z,0.00
2018-07-28T02:28:57.352Z,0.00
2018-07-28T02:29:57.302Z,0.00
2018-07-28T02:30:57.289Z,0.00
2018-07-28T02:31:57.299Z,0.00
2018-07-28T02:32:57.268Z,0.00
2018-07-28T02:33:57.259Z,0.00
2018-07-28T02:34:57.299Z,0.00
2018-07-28T02:35:57.235Z,0.00
2018-07-28T02:36:57.247Z,0.00
2018-07-28T02:37:57.218Z,0.00
2018-07-28T02:38:57.232Z,0.00
2018-07-28T02:39:57.189Z,0.00
2018-07-28T02:40:57.179Z,0.00
2018-07-28T02:41:57.218Z,0.00
2018-07-28T02:42:57.157Z,0.00
2018-07-28T02:43:57.146Z,0.00
2018-07-28T02:44:57.137Z,0.00
2018-07-28T02:45:57.124Z,0.00
2018-07-28T02:46:57.142Z,0.00
2018-07-28T02:47:57.123Z,0.00
2018-07-28T02:48:57.124Z,0.00
2018-07-28T02:49:57.104Z,0.00
2018-07-28T02:50:57.073Z,0.00
2018-07-28T02:51:57.116Z,0.00
2018-07-28T02:52:57.052Z,0.00
2018-07-28T02:53:57.042Z,0.00
2018-07-28T02:54:57.068Z,0.00
2018-07-28T02:55:57.026Z,0.00
2018-07-28T02:56:57.034Z,0.00
2018-07-28T02:57:57.002Z,0.00
2018-07-28T02:58:56.986Z,0.00
2018-07-28T02:59:56.984Z,0.00
2018-07-28T03:00:57.000Z,0.00
2018-07-28T03:01:57.026Z,0.00
2018-07-28T03:02:56.947Z,0.00
2018-07-28T03:03:56.947Z,0.00
2018-07-28T03:04:56.980Z,0.00
2018-07-28T03:05:56.918Z,0.00
2018-07-28T03:06:56.928Z,0.00
2018-07-28T03:07:56.916Z,0.00
2018-07-28T03:08:56.882Z,0.00
2018-07-28T03:09:56.875Z,0.00
2018-07-28T03:10:56.861Z,0.00
2018-07-28T03:11:56.879Z,0.00
2018-07-28T03:12:56.873Z,0.00
2018-07-28T03:13:56.828Z,0.00
2018-07-28T03:14:56.819Z,0.00
2018-07-28T03:15:56.807Z,0.00
2018-07-28T03:16:56.825Z,0.00
2018-07-28T03:17:56.788Z,0.00
2018-07-28T03:18:56.796Z,0.00
2018-07-28T03:19:56.764Z,0.00
2018-07-28T03:20:56.752Z,0.00
2018-07-28T03:21:56.786Z,0.00
2018-07-28T03:22:56.731Z,0.00
2018-07-28T03:23:56.723Z,0.00
2018-07-28T03:24:56.792Z,0.00
2018-07-28T03:25:56.702Z,0.00
2018-07-28T03:26:56.713Z,0.00
2018-07-28T03:27:56.681Z,0.00
2018-07-28T03:28:56.685Z,0.00
2018-07-28T03:29:56.663Z,0.00
2018-07-28T03:30:56.673Z,0.00
2018-07-28T03:31:56.673Z,0.00
2018-07-28T03:32:56.625Z,0.00
2018-07-28T03:33:56.617Z,0.00
2018-07-28T03:34:56.624Z,0.00
2018-07-28T03:35:56.594Z,0.00
2018-07-28T03:36:56.638Z,0.00
2018-07-28T03:37:56.574Z,0.00
2018-07-28T03:38:56.564Z,0.00
2018-07-28T03:39:56.556Z,0.00
2018-07-28T03:40:56.538Z,0.00
2018-07-28T03:41:56.557Z,0.00
2018-07-28T03:42:56.527Z,0.00
2018-07-28T03:43:56.536Z,0.00
2018-07-28T03:44:56.498Z,5.62
2018-07-28T03:45:56.486Z,5.62
2018-07-28T03:46:56.501Z,5.62
2018-07-28T03:47:56.470Z,5.62
2018-07-28T03:48:56.454Z,5.62
2018-07-28T03:49:56.448Z,5.62
2018-07-28T03:50:56.459Z,5.62
2018-07-28T03:51:56.484Z,5.62
2018-07-28T03:52:56.411Z,11.25
2018-07-28T03:53:56.431Z,11.25
2018-07-28T03:54:56.402Z,11.25
2018-07-28T03:55:56.378Z,11.25
2018-07-28T03:56:56.397Z,11.25
2018-07-28T03:57:56.380Z,11.25
2018-07-28T03:58:56.419Z,16.88
2018-07-28T03:59:56.358Z,16.88
2018-07-28T04:00:56.341Z,16.88
2018-07-28T04:01:56.352Z,16.88
2018-07-28T04:02:56.312Z,16.88
2018-07-28T04:03:56.324Z,22.50
2018-07-28T04:04:56.338Z,22.50
2018-07-28T04:05:56.271Z,22.50
2018-07-28T04:06:56.306Z,28.12
2018-07-28T04:07:56.273Z,28.12
2018-07-28T04:08:56.238Z,28.12
2018-07-28T04:09:56.227Z,33.75
2018-07-28T04:10:56.256Z,33.75
2018-07-28T04:11:56.251Z,33.75
2018-07-28T04:12:56.198Z,39.38
2018-07-28T04:13:56.201Z,39.38
2018-07-28T04:14:56.177Z,45.00
2018-07-28T04:15:56.164Z,45.00
2018-07-28T04:16:56.203Z,50.62
2018-07-28T04:17:56.143Z,56.25
2018-07-28T04:18:56.256Z,56.25
2018-07-28T04:19:56.120Z,61.88
2018-07-28T04:20:56.115Z,67.50
2018-07-28T04:21:56.142Z,67.50
2018-07-28T04:22:56.120Z,73.12
2018-07-28T04:23:56.076Z,78.75
2018-07-28T04:24:56.066Z,84.38
2018-07-28T04:25:56.056Z,84.38
2018-07-28T04:26:56.073Z,90.00
2018-07-28T04:27:56.037Z,95.62
2018-07-28T04:28:56.055Z,101.25
2018-07-28T04:29:56.015Z,106.88
2018-07-28T04:30:56.023Z,112.50
2018-07-28T04:31:56.025Z,123.75
2018-07-28T04:32:55.982Z,129.38
2018-07-28T04:33:55.975Z,140.62
2018-07-28T04:34:55.974Z,146.25
2018-07-28T04:35:55.950Z,151.88
2018-07-28T04:36:55.974Z,168.75
2018-07-28T04:37:55.932Z,180.00
2018-07-28T04:38:55.916Z,191.25
2018-07-28T04:39:55.906Z,196.88
2018-07-28T04:40:55.911Z,202.50
2018-07-28T04:41:55.912Z,196.88
2018-07-28T04:42:55.873Z,196.88
2018-07-28T04:43:55.916Z,196.88
2018-07-28T04:44:55.853Z,196.88
2018-07-28T04:45:55.841Z,196.88
2018-07-28T04:46:55.885Z,202.50
2018-07-28T04:47:55.821Z,202.50
2018-07-28T04:48:55.815Z,208.12
2018-07-28T04:49:55.805Z,208.12
2018-07-28T04:50:55.795Z,208.12
2018-07-28T04:51:55.807Z,208.12
2018-07-28T04:52:55.777Z,208.12
2018-07-28T04:53:55.803Z,208.12
2018-07-28T04:54:55.789Z,202.50
2018-07-28T04:55:55.738Z,202.50
2018-07-28T04:56:55.757Z,196.88
2018-07-28T04:57:55.733Z,185.62
2018-07-28T04:58:55.729Z,180.00
2018-07-28T04:59:55.701Z,168.75
2018-07-28T05:00:55.707Z,168.75
2018-07-28T05:01:55.698Z,163.12
2018-07-28T05:02:55.661Z,168.75
2018-07-28T05:03:55.653Z,168.75
2018-07-28T05:04:55.681Z,168.75
2018-07-28T05:05:55.652Z,174.38
2018-07-28T05:06:55.650Z,174.38
2018-07-28T05:07:55.627Z,174.38
2018-07-28T05:08:55.598Z,174.38
2018-07-28T05:09:55.587Z,174.38
2018-07-28T05:10:55.592Z,174.38
2018-07-28T05:11:55.591Z,168.75
2018-07-28T05:12:55.554Z,163.12
2018-07-28T05:13:55.544Z,163.12
2018-07-28T05:14:55.537Z,157.50
2018-07-28T05:15:55.599Z,151.88
2018-07-28T05:16:55.536Z,151.88
2018-07-28T05:17:55.501Z,146.25
2018-07-28T05:18:55.490Z,140.62
2018-07-28T05:19:55.482Z,135.00
2018-07-28T05:20:55.526Z,123.75
2018-07-28T05:21:55.505Z,118.12
2018-07-28T05:22:55.449Z,112.50
2018-07-28T05:23:55.437Z,106.88
2018-07-28T05:24:55.426Z,106.88
2018-07-28T05:25:55.415Z,101.25
2018-07-28T05:26:55.444Z,101.25
2018-07-28T05:27:55.421Z,90.00
2018-07-28T05:28:55.383Z,84.38
2018-07-28T05:29:55.386Z,78.75
2018-07-28T05:30:55.364Z,78.75
2018-07-28T05:31:55.374Z,90.00
2018-07-28T05:32:55.342Z,84.38
2018-07-28T05:33:55.357Z,90.00
2018-07-28T05:34:55.321Z,101.25
2018-07-28T05:35:55.310Z,106.88
2018-07-28T05:36:55.338Z,112.50
2018-07-28T05:37:55.289Z,118.12
2018-07-28T05:38:55.283Z,123.75
2018-07-28T05:39:55.320Z,123.75
2018-07-28T05:40:55.259Z,135.00
2018-07-28T05:41:55.270Z,140.62
2018-07-28T05:42:55.240Z,140.62
2018-07-28T05:43:55.224Z,129.38
2018-07-28T05:44:55.213Z,118.12
2018-07-28T05:45:55.239Z,101.25
2018-07-28T05:46:55.223Z,95.62
2018-07-28T05:47:55.186Z,90.00
2018-07-28T05:48:55.184Z,84.38
2018-07-28T05:49:55.171Z,84.38
2018-07-28T05:50:55.149Z,90.00
2018-07-28T05:51:55.234Z,90.00
2018-07-28T05:52:55.140Z,90.00
2018-07-28T05:53:55.119Z,90.00
2018-07-28T05:54:55.111Z,84.38
2018-07-28T05:55:55.097Z,84.38
2018-07-28T05:56:55.109Z,95.62
2018-07-28T05:57:55.129Z,106.88
2018-07-28T05:58:55.064Z,118.12
2018-07-28T05:59:55.064Z,135.00
2018-07-28T06:00:55.045Z,140.62
2018-07-28T06:01:55.068Z,146.25
2018-07-28T06:02:55.039Z,146.25
2018-07-28T06:03:55.046Z,151.88
2018-07-28T06:04:55.053Z,163.12
2018-07-28T06:05:54.989Z,180.00
2018-07-28T06:06:55.008Z,196.88
2018-07-28T06:07:54.972Z,225.00
2018-07-28T06:08:54.958Z,247.50
2018-07-28T06:09:54.962Z,275.62
2018-07-28T06:10:54.940Z,292.50
2018-07-28T06:11:54.958Z,309.38
2018-07-28T06:12:54.951Z,331.88
2018-07-28T06:13:54.916Z,365.62
2018-07-28T06:14:54.900Z,382.50
2018-07-28T06:15:54.914Z,399.38
2018-07-28T06:16:54.902Z,410.62
2018-07-28T06:17:54.862Z,399.38
2018-07-28T06:18:54.867Z,376.88
2018-07-28T06:19:54.840Z,360.00
2018-07-28T06:20:54.841Z,326.25
2018-07-28T06:21:55.042Z,281.25
2018-07-28T06:22:54.820Z,247.50
2018-07-28T06:23:54.798Z,208.12
2018-07-28T06:24:54.786Z,168.75
2018-07-28T06:25:54.817Z,140.62
2018-07-28T06:26:54.803Z,118.12
2018-07-28T06:27:54.755Z,101.25
2018-07-28T06:28:54.762Z,95.62
2018-07-28T06:29:54.766Z,95.62
2018-07-28T06:30:54.721Z,106.88
2018-07-28T06:31:54.784Z,123.75
2018-07-28T06:32:54.699Z,140.62
2018-07-28T06:33:54.692Z,168.75
2018-07-28T06:34:54.696Z,191.25
2018-07-28T06:35:54.686Z,225.00
2018-07-28T06:36:54.687Z,264.38
2018-07-28T06:37:54.645Z,298.12
2018-07-28T06:38:54.639Z,343.12
2018-07-28T06:39:54.626Z,388.12
2018-07-28T06:40:54.628Z,421.88
2018-07-28T06:41:54.715Z,450.00
2018-07-28T06:42:54.610Z,489.38
2018-07-28T06:43:54.586Z,635.62
2018-07-28T06:44:54.576Z,776.25
2018-07-28T06:45:54.569Z,483.75
2018-07-28T06:46:54.577Z,489.38
2018-07-28T06:47:54.576Z,511.88
2018-07-28T06:48:54.543Z,523.12
2018-07-28T06:49:54.519Z,540.00
2018-07-28T06:50:54.512Z,545.62
2018-07-28T06:51:54.572Z,540.00
2018-07-28T06:52:54.497Z,528.75
2018-07-28T06:53:54.482Z,517.50
2018-07-28T06:54:54.492Z,495.00
2018-07-28T06:55:54.455Z,466.88
2018-07-28T06:56:54.485Z,444.38
2018-07-28T06:57:54.476Z,433.12
2018-07-28T06:58:54.456Z,427.50
2018-07-28T06:59:54.430Z,427.50
2018-07-28T07:00:54.405Z,427.50
2018-07-28T07:01:54.443Z,438.75
2018-07-28T07:02:54.395Z,455.62
2018-07-28T07:03:54.449Z,466.88
2018-07-28T07:04:54.376Z,472.50
2018-07-28T07:05:54.351Z,483.75
2018-07-28T07:06:54.415Z,495.00
2018-07-28T07:07:54.344Z,495.00
2018-07-28T07:08:54.362Z,489.38
2018-07-28T07:09:54.448Z,495.00
2018-07-28T07:10:54.302Z,511.88
2018-07-28T07:11:54.336Z,517.50
2018-07-28T07:12:54.461Z,534.38
2018-07-28T07:13:54.269Z,551.25
2018-07-28T07:14:54.257Z,551.25
2018-07-28T07:15:54.283Z,573.75
2018-07-28T07:16:54.260Z,607.50
2018-07-28T07:17:54.222Z,646.88
2018-07-28T07:18:54.217Z,675.00
2018-07-28T07:19:54.218Z,697.50
2018-07-28T07:20:54.246Z,725.62
2018-07-28T07:21:54.327Z,765.00
2018-07-28T07:22:54.180Z,787.50
2018-07-28T07:23:54.351Z,838.12
2018-07-28T07:24:54.151Z,815.62
2018-07-28T07:25:54.185Z,826.88
2018-07-28T07:26:54.161Z,669.38
2018-07-28T07:27:54.132Z,596.25
2018-07-28T07:28:54.156Z,579.38
2018-07-28T07:29:54.143Z,568.12
2018-07-28T07:30:54.097Z,568.12
2018-07-28T07:31:54.221Z,562.50
2018-07-28T07:32:54.132Z,551.25
2018-07-28T07:33:54.101Z,545.62
2018-07-28T07:34:54.285Z,579.38
2018-07-28T07:35:54.119Z,517.50
2018-07-28T07:36:54.042Z,483.75
2018-07-28T07:37:54.111Z,438.75
2018-07-28T07:38:54.008Z,405.00
2018-07-28T07:39:53.996Z,376.88
2018-07-28T07:40:53.997Z,343.12
2018-07-28T07:41:53.976Z,320.62
2018-07-28T07:42:54.192Z,298.12
2018-07-28T07:43:53.961Z,275.62
2018-07-28T07:44:53.972Z,258.75
2018-07-28T07:45:53.996Z,241.88
2018-07-28T07:46:53.929Z,219.38
2018-07-28T07:47:53.939Z,196.88
2018-07-28T07:48:53.906Z,174.38
2018-07-28T07:49:53.897Z,163.12
2018-07-28T07:50:53.912Z,157.50
2018-07-28T07:51:53.869Z,157.50
2018-07-28T07:52:54.002Z,163.12
2018-07-28T07:53:53.860Z,174.38
2018-07-28T07:54:53.866Z,196.88
2018-07-28T07:55:53.833Z,219.38
2018-07-28T07:56:53.823Z,247.50
2018-07-28T07:57:53.880Z,270.00
2018-07-28T07:58:53.814Z,286.88
2018-07-28T07:59:53.794Z,303.75
2018-07-28T08:00:53.812Z,326.25
2018-07-28T08:01:53.764Z,348.75
2018-07-28T08:02:53.778Z,371.25
2018-07-28T08:03:53.743Z,382.50
2018-07-28T08:04:53.854Z,399.38
2018-07-28T08:05:53.729Z,416.25
2018-07-28T08:06:53.722Z,421.88
2018-07-28T08:07:53.792Z,416.25
2018-07-28T08:08:53.689Z,393.75
2018-07-28T08:09:53.714Z,371.25
2018-07-28T08:10:54.135Z,360.00
2018-07-28T08:11:53.657Z,371.25
2018-07-28T08:12:53.782Z,399.38
2018-07-28T08:13:53.635Z,433.12
2018-07-28T08:14:53.647Z,455.62
2018-07-28T08:15:53.617Z,450.00
2018-07-28T08:16:53.603Z,444.38
2018-07-28T08:17:53.675Z,427.50
2018-07-28T08:18:53.630Z,410.62
2018-07-28T08:19:53.585Z,399.38
2018-07-28T08:20:53.615Z,405.00
2018-07-28T08:21:53.563Z,416.25
2018-07-28T08:22:53.566Z,421.88
2018-07-28T08:23:53.531Z,444.38
2018-07-28T08:24:53.566Z,489.38
2018-07-28T08:25:53.514Z,523.12
2018-07-28T08:26:53.665Z,545.62
2018-07-28T08:27:53.547Z,562.50
2018-07-28T08:28:53.480Z,573.75
2018-07-28T08:29:53.481Z,573.75
2018-07-28T08:30:53.523Z,562.50
2018-07-28T08:31:53.448Z,551.25
2018-07-28T08:32:53.463Z,540.00
2018-07-28T08:33:53.452Z,528.75
2018-07-28T08:34:53.442Z,511.88
2018-07-28T08:35:53.415Z,495.00
2018-07-28T08:36:53.438Z,472.50
2018-07-28T08:37:53.448Z,450.00
2018-07-28T08:38:53.384Z,433.12
2018-07-28T08:39:53.415Z,416.25
2018-07-28T08:40:53.365Z,393.75
2018-07-28T08:41:53.352Z,382.50
2018-07-28T08:42:53.455Z,376.88
2018-07-28T08:43:53.325Z,388.12
2018-07-28T08:44:53.314Z,399.38
2018-07-28T08:45:53.304Z,416.25
2018-07-28T08:46:53.309Z,455.62
2018-07-28T08:47:53.413Z,506.25
2018-07-28T08:48:53.319Z,556.88
2018-07-28T08:49:53.272Z,618.75
2018-07-28T08:50:53.253Z,652.50
2018-07-28T08:51:53.250Z,691.88
2018-07-28T08:52:53.262Z,731.25
2018-07-28T08:53:53.257Z,736.88
2018-07-28T08:54:53.242Z,753.75
2018-07-28T08:55:53.208Z,776.25
2018-07-28T08:56:53.200Z,821.25
2018-07-28T08:57:53.211Z,883.12
2018-07-28T08:58:53.214Z,956.25
2018-07-28T08:59:53.223Z,961.88
2018-07-28T09:00:53.171Z,945.00
2018-07-28T09:01:53.146Z,1012.50
2018-07-28T09:02:53.201Z,978.75
2018-07-28T09:03:53.225Z,905.62
2018-07-28T09:04:53.107Z,922.50
2018-07-28T09:05:53.123Z,950.62
2018-07-28T09:06:53.115Z,1006.88
2018-07-28T09:07:53.106Z,1029.38
2018-07-28T09:08:53.066Z,1018.12
2018-07-28T09:09:53.057Z,1035.00
2018-07-28T09:10:53.056Z,990.00
2018-07-28T09:11:53.045Z,922.50
2018-07-28T09:12:53.088Z,894.38
2018-07-28T09:13:53.042Z,939.38
2018-07-28T09:14:53.005Z,922.50
2018-07-28T09:15:53.094Z,973.12
2018-07-28T09:16:52.990Z,1001.25
2018-07-28T09:17:53.029Z,990.00
2018-07-28T09:18:52.964Z,939.38
2018-07-28T09:19:52.955Z,928.12
2018-07-28T09:20:52.962Z,894.38
2018-07-28T09:21:53.065Z,866.25
2018-07-28T09:22:52.949Z,866.25
2018-07-28T09:23:52.915Z,866.25
2018-07-28T09:24:52.919Z,866.25
2018-07-28T09:25:52.895Z,855.00
2018-07-28T09:26:52.887Z,843.75
2018-07-28T09:27:52.937Z,855.00
2018-07-28T09:28:52.868Z,883.12
2018-07-28T09:29:52.861Z,877.50
2018-07-28T09:30:52.839Z,838.12
2018-07-28T09:31:52.830Z,793.12
2018-07-28T09:32:52.894Z,810.00
2018-07-28T09:33:52.812Z,855.00
2018-07-28T09:34:52.798Z,911.25
2018-07-28T09:35:52.794Z,978.75
2018-07-28T09:36:52.847Z,978.75
2018-07-28T09:37:52.791Z,1012.50
2018-07-28T09:38:52.771Z,967.50
2018-07-28T09:39:52.773Z,984.38
2018-07-28T09:40:52.837Z,1029.38
2018-07-28T09:41:52.730Z,1035.00
2018-07-28T09:42:52.777Z,1085.62
2018-07-28T09:43:52.709Z,1170.00
2018-07-28T09:44:52.698Z,1237.50
2018-07-28T09:45:52.706Z,1248.75
2018-07-28T09:46:52.734Z,1260.00
2018-07-28T09:47:52.690Z,1220.62
2018-07-28T09:48:52.655Z,1175.62
2018-07-28T09:49:52.676Z,1125.00
2018-07-28T09:50:52.661Z,1096.88
2018-07-28T09:51:52.629Z,1141.88
2018-07-28T09:52:52.643Z,1147.50
2018-07-28T09:53:52.604Z,1170.00
2018-07-28T09:54:52.606Z,1147.50
2018-07-28T09:55:52.606Z,1091.25
2018-07-28T09:56:52.583Z,1006.88
2018-07-28T09:57:52.595Z,967.50
2018-07-28T09:58:52.558Z,967.50
2018-07-28T09:59:52.567Z,990.00
2018-07-28T10:00:52.535Z,973.12
2018-07-28T10:01:52.530Z,973.12
2018-07-28T10:02:52.576Z,978.75
2018-07-28T10:03:52.508Z,978.75
2018-07-28T10:04:52.495Z,1018.12
2018-07-28T10:05:52.487Z,1040.62
2018-07-28T10:06:52.475Z,1057.50
2018-07-28T10:07:52.512Z,1080.00
2018-07-28T10:08:52.529Z,1029.38
2018-07-28T10:09:52.453Z,973.12
2018-07-28T10:10:52.435Z,911.25
2018-07-28T10:11:52.429Z,866.25
2018-07-28T10:12:52.416Z,855.00
2018-07-28T10:13:52.431Z,855.00
2018-07-28T10:14:52.408Z,888.75
2018-07-28T10:15:52.386Z,928.12
2018-07-28T10:16:52.387Z,956.25
2018-07-28T10:17:52.366Z,961.88
2018-07-28T10:18:52.386Z,956.25
2018-07-28T10:19:52.384Z,967.50
2018-07-28T10:20:52.398Z,956.25
2018-07-28T10:21:52.329Z,961.88
2018-07-28T10:22:52.346Z,990.00
2018-07-28T10:23:52.335Z,1001.25
2018-07-28T10:24:52.295Z,1006.88
2018-07-28T10:25:52.302Z,1051.88
2018-07-28T10:26:52.308Z,1068.75
2018-07-28T10:27:52.264Z,1085.62
2018-07-28T10:28:52.254Z,1057.50
2018-07-28T10:29:52.293Z,978.75
2018-07-28T10:30:52.237Z,973.12
2018-07-28T10:31:52.224Z,928.12
2018-07-28T10:32:52.236Z,978.75
2018-07-28T10:33:52.206Z,945.00
2018-07-28T10:34:52.218Z,956.25
2018-07-28T10:35:52.185Z,978.75
2018-07-28T10:36:52.182Z,973.12
2018-07-28T10:37:52.165Z,995.62
2018-07-28T10:38:52.157Z,905.62
2018-07-28T10:39:52.210Z,849.38
2018-07-28T10:40:52.169Z,787.50
2018-07-28T10:41:52.158Z,748.12
2018-07-28T10:42:52.118Z,714.38
2018-07-28T10:43:52.167Z,686.25
2018-07-28T10:44:52.098Z,669.38
2018-07-28T10:45:52.173Z,652.50
2018-07-28T10:46:52.130Z,635.62
2018-07-28T10:47:52.073Z,641.25
2018-07-28T10:48:52.060Z,652.50
2018-07-28T10:49:52.057Z,652.50
2018-07-28T10:50:52.171Z,652.50
2018-07-28T10:51:52.054Z,658.12
2018-07-28T10:52:52.036Z,680.62
2018-07-28T10:53:52.005Z,703.12
2018-07-28T10:54:51.993Z,708.75
2018-07-28T10:55:52.007Z,708.75
2018-07-28T10:56:51.976Z,708.75
2018-07-28T10:57:51.992Z,703.12
2018-07-28T10:58:51.950Z,708.75
2018-07-28T10:59:51.940Z,731.25
2018-07-28T11:00:51.956Z,753.75
2018-07-28T11:01:51.919Z,832.50
2018-07-28T11:02:51.907Z,956.25
2018-07-28T11:03:51.903Z,928.12
2018-07-28T11:04:51.903Z,961.88
2018-07-28T11:05:51.924Z,984.38
2018-07-28T11:06:51.867Z,1057.50
2018-07-28T11:07:51.857Z,1125.00
2018-07-28T11:08:51.850Z,1175.62
2018-07-28T11:09:51.895Z,1845.00
2018-07-28T11:10:51.857Z,3060.00
2018-07-28T11:11:51.920Z,1636.88
2018-07-28T11:12:51.815Z,1276.88
2018-07-28T11:13:51.800Z,888.75
2018-07-28T11:14:51.827Z,714.38
2018-07-28T11:15:51.825Z,534.38
2018-07-28T11:16:51.787Z,421.88
2018-07-28T11:17:51.761Z,354.38
2018-07-28T11:18:51.800Z,303.75
2018-07-28T11:19:51.753Z,241.88
2018-07-28T11:20:51.755Z,196.88
2018-07-28T11:21:51.749Z,168.75
2018-07-28T11:22:51.712Z,157.50
2018-07-28T11:23:51.701Z,151.88
2018-07-28T11:24:51.815Z,157.50
2018-07-28T11:25:51.731Z,151.88
2018-07-28T11:26:51.672Z,151.88
2018-07-28T11:27:51.667Z,151.88
2018-07-28T11:28:51.648Z,163.12
2018-07-28T11:29:51.636Z,174.38
2018-07-28T11:30:51.661Z,185.62
2018-07-28T11:31:51.635Z,185.62
2018-07-28T11:32:51.710Z,180.00
2018-07-28T11:33:51.600Z,174.38
2018-07-28T11:34:51.600Z,180.00
2018-07-28T11:35:51.629Z,185.62
2018-07-28T11:36:51.566Z,202.50
2018-07-28T11:37:51.565Z,208.12
2018-07-28T11:38:51.549Z,219.38
2018-07-28T11:39:51.535Z,219.38
2018-07-28T11:40:51.550Z,225.00
2018-07-28T11:41:51.544Z,225.00
2018-07-28T11:42:51.499Z,230.62
2018-07-28T11:43:51.521Z,247.50
2018-07-28T11:44:51.489Z,264.38
2018-07-28T11:45:51.561Z,303.75
2018-07-28T11:46:51.460Z,365.62
2018-07-28T11:47:51.459Z,489.38
2018-07-28T11:48:51.444Z,1327.50
2018-07-28T11:49:51.426Z,2244.38
2018-07-28T11:50:51.436Z,4713.75
2018-07-28T11:51:51.438Z,2430.00
2018-07-28T11:52:51.429Z,3864.38
2018-07-28T11:53:51.423Z,3335.62
2018-07-28T11:54:51.375Z,3802.50
2018-07-28T11:55:51.375Z,3459.38
2018-07-28T11:56:51.580Z,3138.75
2018-07-28T11:57:51.358Z,3020.62
2018-07-28T11:58:51.382Z,2891.25
2018-07-28T11:59:51.330Z,2705.62
2018-07-28T12:00:51.352Z,2587.50
2018-07-28T12:01:51.608Z,2525.62
2018-07-28T12:02:51.323Z,2340.00
2018-07-28T12:03:51.288Z,2385.00
2018-07-28T12:04:51.596Z,2278.12
2018-07-28T12:05:51.271Z,2098.12
2018-07-28T12:06:51.301Z,2261.25
2018-07-28T12:07:51.297Z,2036.25
2018-07-28T12:08:51.500Z,1918.12
2018-07-28T12:09:51.230Z,2081.25
2018-07-28T12:10:51.472Z,1833.75
2018-07-28T12:11:51.224Z,1749.38
2018-07-28T12:12:51.245Z,1867.50
2018-07-28T12:13:51.339Z,1828.12
2018-07-28T12:14:51.256Z,1670.62
2018-07-28T12:15:51.178Z,1524.38
2018-07-28T12:16:51.165Z,1468.12
2018-07-28T12:17:51.193Z,1513.12
2018-07-28T12:18:51.378Z,838.12
2018-07-28T12:19:51.334Z,1867.50
2018-07-28T12:20:51.130Z,2030.62
2018-07-28T12:21:51.145Z,630.00
2018-07-28T12:22:51.163Z,624.38
2018-07-28T12:23:51.135Z,551.25
2018-07-28T12:24:51.093Z,511.88
2018-07-28T12:25:51.125Z,421.88
2018-07-28T12:26:51.104Z,365.62
2018-07-28T12:27:51.148Z,343.12
2018-07-28T12:28:51.177Z,354.38
2018-07-28T12:29:51.263Z,360.00
2018-07-28T12:30:51.032Z,354.38
2018-07-28T12:31:51.038Z,354.38
2018-07-28T12:32:51.077Z,393.75
2018-07-28T12:33:51.013Z,483.75
2018-07-28T12:34:50.999Z,1625.62
2018-07-28T12:35:50.984Z,523.12
2018-07-28T12:36:50.972Z,461.25
2018-07-28T12:37:50.990Z,455.62
2018-07-28T12:38:51.103Z,540.00
2018-07-28T12:39:50.944Z,562.50
2018-07-28T12:40:50.934Z,573.75
2018-07-28T12:41:50.942Z,703.12
2018-07-28T12:42:50.938Z,776.25